sensor_id;sensor_type;location;lat;lon;timestamp;P1;durP1;ratioP1;P2;durP2;ratioP2
44728;SDS011;30457;53.590;9.922;2023-08-24T00:03:19;5.43;;;2.97;;
44728;SDS011;30457;53.590;9.922;2023-08-24T00:07:46;5.93;;;3.20;;
44728;SDS011;30457;53.590;9.922;2023-08-24T00:12:13;3.60;;;2.90;;
44728;SDS011;30457;53.590;9.922;2023-08-24T00:16:38;6.55;;;2.90;;
44728;SDS011;30457;53.590;9.922;2023-08-24T00:21:05;7.55;;;3.13;;
44728;SDS011;30457;53.590;9.922;2023-08-24T00:25:32;7.03;;;3.10;;
44728;SDS011;30457;53.590;9.922;2023-08-24T00:29:58;6.15;;;3.00;;
44728;SDS011;30457;53.590;9.922;2023-08-24T00:34:23;5.22;;;2.70;;
44728;SDS011;30457;53.590;9.922;2023-08-24T00:38:49;3.72;;;2.72;;
44728;SDS011;30457;53.590;9.922;2023-08-24T00:43:16;5.65;;;3.10;;
44728;SDS011;30457;53.590;9.922;2023-08-24T00:47:43;7.68;;;2.97;;
44728;SDS011;30457;53.590;9.922;2023-08-24T00:52:10;6.97;;;3.63;;
44728;SDS011;30457;53.590;9.922;2023-08-24T00:56:37;17.20;;;4.00;;
44728;SDS011;30457;53.590;9.922;2023-08-24T01:01:03;7.20;;;3.13;;
44728;SDS011;30457;53.590;9.922;2023-08-24T01:05:28;3.92;;;2.80;;
44728;SDS011;30457;53.590;9.922;2023-08-24T01:09:54;4.90;;;3.05;;
44728;SDS011;30457;53.590;9.922;2023-08-24T01:14:30;3.95;;;2.72;;
44728;SDS011;30457;53.590;9.922;2023-08-24T01:19:10;6.15;;;2.78;;
44728;SDS011;30457;53.590;9.922;2023-08-24T01:23:53;5.40;;;2.65;;
44728;SDS011;30457;53.590;9.922;2023-08-24T01:28:44;4.80;;;2.70;;
44728;SDS011;30457;53.590;9.922;2023-08-24T01:33:11;2.92;;;2.55;;
44728;SDS011;30457;53.590;9.922;2023-08-24T01:37:37;5.30;;;3.08;;
44728;SDS011;30457;53.590;9.922;2023-08-24T01:42:03;5.38;;;2.72;;
44728;SDS011;30457;53.590;9.922;2023-08-24T01:46:34;6.78;;;2.70;;
44728;SDS011;30457;53.590;9.922;2023-08-24T01:51:04;6.47;;;2.45;;
44728;SDS011;30457;53.590;9.922;2023-08-24T01:55:30;5.03;;;2.72;;
44728;SDS011;30457;53.590;9.922;2023-08-24T01:59:56;5.38;;;2.80;;
44728;SDS011;30457;53.590;9.922;2023-08-24T02:04:21;6.80;;;2.70;;
44728;SDS011;30457;53.590;9.922;2023-08-24T02:08:47;6.78;;;2.45;;
44728;SDS011;30457;53.590;9.922;2023-08-24T02:13:12;5.78;;;2.65;;
44728;SDS011;30457;53.590;9.922;2023-08-24T02:17:38;7.50;;;3.08;;
44728;SDS011;30457;53.590;9.922;2023-08-24T02:22:04;5.25;;;2.75;;
44728;SDS011;30457;53.590;9.922;2023-08-24T02:26:29;3.63;;;2.63;;
44728;SDS011;30457;53.590;9.922;2023-08-24T02:30:59;4.25;;;3.63;;
44728;SDS011;30457;53.590;9.922;2023-08-24T02:35:26;4.38;;;2.60;;
44728;SDS011;30457;53.590;9.922;2023-08-24T02:39:51;4.60;;;3.28;;
44728;SDS011;30457;53.590;9.922;2023-08-24T02:44:17;2.88;;;2.33;;
44728;SDS011;30457;53.590;9.922;2023-08-24T02:48:42;6.88;;;3.97;;
44728;SDS011;30457;53.590;9.922;2023-08-24T02:53:08;11.45;;;3.50;;
44728;SDS011;30457;53.590;9.922;2023-08-24T02:57:34;4.35;;;2.85;;
44728;SDS011;30457;53.590;9.922;2023-08-24T03:02:02;4.88;;;3.35;;
44728;SDS011;30457;53.590;9.922;2023-08-24T03:06:27;5.00;;;2.95;;
44728;SDS011;30457;53.590;9.922;2023-08-24T03:10:53;6.72;;;3.58;;
44728;SDS011;30457;53.590;9.922;2023-08-24T03:15:19;4.68;;;3.17;;
44728;SDS011;30457;53.590;9.922;2023-08-24T03:19:46;6.50;;;4.03;;
44728;SDS011;30457;53.590;9.922;2023-08-24T03:24:11;5.88;;;3.63;;
44728;SDS011;30457;53.590;9.922;2023-08-24T03:28:38;5.07;;;3.60;;
44728;SDS011;30457;53.590;9.922;2023-08-24T03:33:04;5.70;;;3.95;;
44728;SDS011;30457;53.590;9.922;2023-08-24T03:37:30;7.97;;;3.90;;
44728;SDS011;30457;53.590;9.922;2023-08-24T03:41:55;3.90;;;3.38;;
44728;SDS011;30457;53.590;9.922;2023-08-24T03:46:21;6.05;;;3.28;;
44728;SDS011;30457;53.590;9.922;2023-08-24T03:50:47;5.72;;;3.67;;
44728;SDS011;30457;53.590;9.922;2023-08-24T03:55:13;5.15;;;2.60;;
44728;SDS011;30457;53.590;9.922;2023-08-24T03:59:38;4.45;;;3.10;;
44728;SDS011;30457;53.590;9.922;2023-08-24T04:04:04;4.35;;;3.33;;
44728;SDS011;30457;53.590;9.922;2023-08-24T04:08:30;4.82;;;3.25;;
44728;SDS011;30457;53.590;9.922;2023-08-24T04:12:55;3.58;;;2.80;;
44728;SDS011;30457;53.590;9.922;2023-08-24T04:17:21;7.85;;;3.75;;
44728;SDS011;30457;53.590;9.922;2023-08-24T04:21:47;4.53;;;3.15;;
44728;SDS011;30457;53.590;9.922;2023-08-24T04:26:13;3.45;;;2.78;;
44728;SDS011;30457;53.590;9.922;2023-08-24T04:30:38;4.00;;;2.97;;
44728;SDS011;30457;53.590;9.922;2023-08-24T04:35:04;4.35;;;2.97;;
44728;SDS011;30457;53.590;9.922;2023-08-24T04:39:30;4.70;;;3.67;;
44728;SDS011;30457;53.590;9.922;2023-08-24T04:43:56;5.93;;;3.53;;
44728;SDS011;30457;53.590;9.922;2023-08-24T04:48:22;4.38;;;3.33;;
44728;SDS011;30457;53.590;9.922;2023-08-24T04:52:48;5.93;;;3.78;;
44728;SDS011;30457;53.590;9.922;2023-08-24T04:57:14;4.10;;;3.70;;
44728;SDS011;30457;53.590;9.922;2023-08-24T05:01:39;6.53;;;3.67;;
44728;SDS011;30457;53.590;9.922;2023-08-24T05:06:05;4.43;;;3.35;;
44728;SDS011;30457;53.590;9.922;2023-08-24T05:10:31;7.35;;;4.15;;
44728;SDS011;30457;53.590;9.922;2023-08-24T05:14:57;5.28;;;3.70;;
44728;SDS011;30457;53.590;9.922;2023-08-24T05:19:23;7.78;;;3.38;;
44728;SDS011;30457;53.590;9.922;2023-08-24T05:23:48;5.75;;;3.67;;
44728;SDS011;30457;53.590;9.922;2023-08-24T05:28:14;3.72;;;2.95;;
44728;SDS011;30457;53.590;9.922;2023-08-24T05:32:40;5.55;;;3.45;;
44728;SDS011;30457;53.590;9.922;2023-08-24T05:37:06;5.80;;;3.22;;
44728;SDS011;30457;53.590;9.922;2023-08-24T05:41:31;8.35;;;3.20;;
44728;SDS011;30457;53.590;9.922;2023-08-24T05:45:57;5.50;;;2.90;;
44728;SDS011;30457;53.590;9.922;2023-08-24T05:50:22;3.03;;;2.65;;
44728;SDS011;30457;53.590;9.922;2023-08-24T05:54:48;7.20;;;2.65;;
44728;SDS011;30457;53.590;9.922;2023-08-24T05:59:14;5.05;;;2.80;;
44728;SDS011;30457;53.590;9.922;2023-08-24T06:03:39;5.53;;;1.95;;
44728;SDS011;30457;53.590;9.922;2023-08-24T06:08:05;3.30;;;1.85;;
44728;SDS011;30457;53.590;9.922;2023-08-24T06:12:31;3.70;;;1.67;;
44728;SDS011;30457;53.590;9.922;2023-08-24T06:16:56;4.05;;;2.83;;
44728;SDS011;30457;53.590;9.922;2023-08-24T06:21:22;3.67;;;1.45;;
44728;SDS011;30457;53.590;9.922;2023-08-24T06:25:47;1.73;;;0.93;;
44728;SDS011;30457;53.590;9.922;2023-08-24T06:30:13;2.08;;;0.60;;
44728;SDS011;30457;53.590;9.922;2023-08-24T06:34:38;1.65;;;1.00;;
44728;SDS011;30457;53.590;9.922;2023-08-24T06:39:04;3.70;;;1.40;;
44728;SDS011;30457;53.590;9.922;2023-08-24T06:43:30;2.92;;;1.02;;
44728;SDS011;30457;53.590;9.922;2023-08-24T06:47:55;2.90;;;0.70;;
44728;SDS011;30457;53.590;9.922;2023-08-24T06:52:21;1.45;;;0.70;;
44728;SDS011;30457;53.590;9.922;2023-08-24T06:56:46;2.22;;;0.75;;
44728;SDS011;30457;53.590;9.922;2023-08-24T07:01:12;2.53;;;1.08;;
44728;SDS011;30457;53.590;9.922;2023-08-24T07:05:37;2.33;;;0.80;;
44728;SDS011;30457;53.590;9.922;2023-08-24T07:10:03;2.65;;;1.10;;
44728;SDS011;30457;53.590;9.922;2023-08-24T07:14:29;3.00;;;1.17;;
44728;SDS011;30457;53.590;9.922;2023-08-24T07:18:55;3.25;;;1.92;;
44728;SDS011;30457;53.590;9.922;2023-08-24T07:23:20;1.98;;;1.30;;
44728;SDS011;30457;53.590;9.922;2023-08-24T07:27:46;4.07;;;1.27;;
44728;SDS011;30457;53.590;9.922;2023-08-24T07:32:12;2.25;;;1.33;;
44728;SDS011;30457;53.590;9.922;2023-08-24T07:36:37;4.45;;;1.27;;
44728;SDS011;30457;53.590;9.922;2023-08-24T07:41:03;3.88;;;1.02;;
44728;SDS011;30457;53.590;9.922;2023-08-24T07:45:28;3.10;;;1.45;;
44728;SDS011;30457;53.590;9.922;2023-08-24T07:49:54;5.88;;;1.65;;
44728;SDS011;30457;53.590;9.922;2023-08-24T07:54:20;1.45;;;0.95;;
44728;SDS011;30457;53.590;9.922;2023-08-24T07:58:45;2.33;;;1.15;;
44728;SDS011;30457;53.590;9.922;2023-08-24T08:03:11;3.00;;;1.20;;
44728;SDS011;30457;53.590;9.922;2023-08-24T08:07:37;5.35;;;1.35;;
44728;SDS011;30457;53.590;9.922;2023-08-24T08:12:02;2.05;;;1.20;;
44728;SDS011;30457;53.590;9.922;2023-08-24T08:16:28;3.13;;;1.33;;
44728;SDS011;30457;53.590;9.922;2023-08-24T08:20:54;5.35;;;1.38;;
44728;SDS011;30457;53.590;9.922;2023-08-24T08:25:20;3.75;;;1.70;;
44728;SDS011;30457;53.590;9.922;2023-08-24T08:29:47;2.08;;;1.65;;
44728;SDS011;30457;53.590;9.922;2023-08-24T08:34:15;3.70;;;1.63;;
44728;SDS011;30457;53.590;9.922;2023-08-24T08:38:41;2.38;;;1.38;;
44728;SDS011;30457;53.590;9.922;2023-08-24T08:43:06;3.83;;;1.50;;
44728;SDS011;30457;53.590;9.922;2023-08-24T08:47:32;4.13;;;1.20;;
44728;SDS011;30457;53.590;9.922;2023-08-24T08:51:58;4.55;;;1.25;;
44728;SDS011;30457;53.590;9.922;2023-08-24T08:56:23;3.97;;;1.50;;
44728;SDS011;30457;53.590;9.922;2023-08-24T09:00:49;1.90;;;1.45;;
44728;SDS011;30457;53.590;9.922;2023-08-24T09:05:16;5.18;;;1.48;;
44728;SDS011;30457;53.590;9.922;2023-08-24T09:09:42;3.63;;;1.50;;
44728;SDS011;30457;53.590;9.922;2023-08-24T09:14:08;6.13;;;1.92;;
44728;SDS011;30457;53.590;9.922;2023-08-24T09:18:35;5.20;;;2.00;;
44728;SDS011;30457;53.590;9.922;2023-08-24T09:23:04;8.05;;;2.08;;
44728;SDS011;30457;53.590;9.922;2023-08-24T09:27:41;5.38;;;1.88;;
44728;SDS011;30457;53.590;9.922;2023-08-24T09:32:07;7.43;;;1.80;;
44728;SDS011;30457;53.590;9.922;2023-08-24T09:36:34;3.35;;;1.95;;
44728;SDS011;30457;53.590;9.922;2023-08-24T09:41:01;4.13;;;1.80;;
44728;SDS011;30457;53.590;9.922;2023-08-24T09:45:27;6.40;;;1.95;;
44728;SDS011;30457;53.590;9.922;2023-08-24T09:49:52;4.78;;;1.70;;
44728;SDS011;30457;53.590;9.922;2023-08-24T09:54:18;3.58;;;1.58;;
44728;SDS011;30457;53.590;9.922;2023-08-24T09:58:46;7.55;;;1.80;;
44728;SDS011;30457;53.590;9.922;2023-08-24T10:03:18;4.57;;;1.85;;
44728;SDS011;30457;53.590;9.922;2023-08-24T10:07:49;2.90;;;1.60;;
44728;SDS011;30457;53.590;9.922;2023-08-24T10:12:23;2.47;;;1.50;;
44728;SDS011;30457;53.590;9.922;2023-08-24T10:16:52;1.70;;;1.38;;
44728;SDS011;30457;53.590;9.922;2023-08-24T10:21:18;4.15;;;1.70;;
44728;SDS011;30457;53.590;9.922;2023-08-24T10:25:45;2.65;;;1.48;;
44728;SDS011;30457;53.590;9.922;2023-08-24T10:30:12;3.15;;;1.40;;
44728;SDS011;30457;53.590;9.922;2023-08-24T10:34:38;4.55;;;1.48;;
44728;SDS011;30457;53.590;9.922;2023-08-24T10:39:04;10.70;;;1.70;;
44728;SDS011;30457;53.590;9.922;2023-08-24T10:43:37;2.22;;;1.40;;
44728;SDS011;30457;53.590;9.922;2023-08-24T10:48:03;4.40;;;2.03;;
44728;SDS011;30457;53.590;9.922;2023-08-24T10:56:57;4.22;;;1.80;;
44728;SDS011;30457;53.590;9.922;2023-08-24T11:01:23;4.93;;;2.45;;
44728;SDS011;30457;53.590;9.922;2023-08-24T11:05:51;2.47;;;1.52;;
44728;SDS011;30457;53.590;9.922;2023-08-24T11:10:17;5.93;;;1.50;;
44728;SDS011;30457;53.590;9.922;2023-08-24T11:14:49;3.30;;;1.73;;
44728;SDS011;30457;53.590;9.922;2023-08-24T11:19:26;6.10;;;1.52;;
44728;SDS011;30457;53.590;9.922;2023-08-24T11:23:52;5.25;;;1.60;;
44728;SDS011;30457;53.590;9.922;2023-08-24T11:28:19;4.85;;;1.60;;
44728;SDS011;30457;53.590;9.922;2023-08-24T11:32:51;2.13;;;1.60;;
44728;SDS011;30457;53.590;9.922;2023-08-24T11:37:18;3.40;;;1.83;;
44728;SDS011;30457;53.590;9.922;2023-08-24T11:41:44;7.22;;;1.90;;
44728;SDS011;30457;53.590;9.922;2023-08-24T11:46:21;3.70;;;2.13;;
44728;SDS011;30457;53.590;9.922;2023-08-24T11:50:46;8.75;;;2.15;;
44728;SDS011;30457;53.590;9.922;2023-08-24T11:55:13;7.35;;;2.33;;
44728;SDS011;30457;53.590;9.922;2023-08-24T11:59:39;4.50;;;2.08;;
44728;SDS011;30457;53.590;9.922;2023-08-24T12:04:06;5.45;;;2.05;;
44728;SDS011;30457;53.590;9.922;2023-08-24T12:08:36;3.13;;;1.90;;
44728;SDS011;30457;53.590;9.922;2023-08-24T12:13:03;4.10;;;1.80;;
44728;SDS011;30457;53.590;9.922;2023-08-24T12:17:30;3.42;;;2.47;;
44728;SDS011;30457;53.590;9.922;2023-08-24T12:22:08;7.45;;;2.10;;
44728;SDS011;30457;53.590;9.922;2023-08-24T12:26:37;4.38;;;2.03;;
44728;SDS011;30457;53.590;9.922;2023-08-24T12:31:02;3.90;;;2.22;;
44728;SDS011;30457;53.590;9.922;2023-08-24T12:35:28;2.50;;;2.20;;
44728;SDS011;30457;53.590;9.922;2023-08-24T12:39:54;4.97;;;2.05;;
44728;SDS011;30457;53.590;9.922;2023-08-24T12:44:19;8.68;;;1.85;;
44728;SDS011;30457;53.590;9.922;2023-08-24T12:48:45;2.90;;;1.90;;
44728;SDS011;30457;53.590;9.922;2023-08-24T12:53:10;2.60;;;1.63;;
44728;SDS011;30457;53.590;9.922;2023-08-24T12:57:36;3.08;;;1.90;;
44728;SDS011;30457;53.590;9.922;2023-08-24T13:02:01;4.88;;;2.08;;
44728;SDS011;30457;53.590;9.922;2023-08-24T13:06:29;4.13;;;2.03;;
44728;SDS011;30457;53.590;9.922;2023-08-24T13:10:55;2.65;;;2.08;;
44728;SDS011;30457;53.590;9.922;2023-08-24T13:15:20;4.65;;;1.85;;
44728;SDS011;30457;53.590;9.922;2023-08-24T13:19:46;3.15;;;1.92;;
44728;SDS011;30457;53.590;9.922;2023-08-24T13:24:13;3.58;;;1.80;;
44728;SDS011;30457;53.590;9.922;2023-08-24T13:28:39;3.55;;;1.77;;
44728;SDS011;30457;53.590;9.922;2023-08-24T13:33:04;4.18;;;1.75;;
44728;SDS011;30457;53.590;9.922;2023-08-24T13:37:30;3.15;;;1.65;;
44728;SDS011;30457;53.590;9.922;2023-08-24T13:41:56;5.30;;;1.88;;
44728;SDS011;30457;53.590;9.922;2023-08-24T13:46:22;3.35;;;1.60;;
44728;SDS011;30457;53.590;9.922;2023-08-24T13:50:50;3.42;;;1.85;;
44728;SDS011;30457;53.590;9.922;2023-08-24T13:55:19;3.55;;;1.67;;
44728;SDS011;30457;53.590;9.922;2023-08-24T13:59:45;4.93;;;1.75;;
44728;SDS011;30457;53.590;9.922;2023-08-24T14:04:11;2.35;;;1.60;;
44728;SDS011;30457;53.590;9.922;2023-08-24T14:08:36;1.95;;;1.50;;
44728;SDS011;30457;53.590;9.922;2023-08-24T14:13:02;4.15;;;2.20;;
44728;SDS011;30457;53.590;9.922;2023-08-24T14:17:28;2.22;;;1.55;;
44728;SDS011;30457;53.590;9.922;2023-08-24T14:21:53;2.90;;;1.63;;
44728;SDS011;30457;53.590;9.922;2023-08-24T14:26:23;2.35;;;1.40;;
44728;SDS011;30457;53.590;9.922;2023-08-24T14:30:52;1.65;;;1.27;;
44728;SDS011;30457;53.590;9.922;2023-08-24T14:35:17;2.15;;;1.60;;
44728;SDS011;30457;53.590;9.922;2023-08-24T14:39:43;5.65;;;1.40;;
44728;SDS011;30457;53.590;9.922;2023-08-24T14:44:08;2.25;;;1.40;;
44728;SDS011;30457;53.590;9.922;2023-08-24T14:48:34;4.15;;;1.52;;
44728;SDS011;30457;53.590;9.922;2023-08-24T14:52:59;3.33;;;1.85;;
44728;SDS011;30457;53.590;9.922;2023-08-24T14:57:25;4.15;;;1.73;;
44728;SDS011;30457;53.590;9.922;2023-08-24T15:01:51;2.20;;;1.50;;
44728;SDS011;30457;53.590;9.922;2023-08-24T15:06:18;3.53;;;1.63;;
44728;SDS011;30457;53.590;9.922;2023-08-24T15:10:44;2.58;;;1.92;;
44728;SDS011;30457;53.590;9.922;2023-08-24T15:15:09;1.95;;;1.55;;
44728;SDS011;30457;53.590;9.922;2023-08-24T15:19:35;2.13;;;1.42;;
44728;SDS011;30457;53.590;9.922;2023-08-24T15:24:00;4.72;;;1.70;;
44728;SDS011;30457;53.590;9.922;2023-08-24T15:28:26;3.05;;;2.17;;
44728;SDS011;30457;53.590;9.922;2023-08-24T15:33:00;2.10;;;1.85;;
44728;SDS011;30457;53.590;9.922;2023-08-24T15:37:26;4.38;;;1.70;;
44728;SDS011;30457;53.590;9.922;2023-08-24T15:41:53;4.20;;;1.75;;
44728;SDS011;30457;53.590;9.922;2023-08-24T15:46:18;4.85;;;1.83;;
44728;SDS011;30457;53.590;9.922;2023-08-24T15:50:44;1.98;;;1.50;;
44728;SDS011;30457;53.590;9.922;2023-08-24T15:55:09;1.52;;;1.27;;
44728;SDS011;30457;53.590;9.922;2023-08-24T15:59:35;3.25;;;1.48;;
44728;SDS011;30457;53.590;9.922;2023-08-24T16:04:01;15.35;;;2.13;;
44728;SDS011;30457;53.590;9.922;2023-08-24T16:08:27;2.15;;;1.60;;
44728;SDS011;30457;53.590;9.922;2023-08-24T16:12:53;1.88;;;1.45;;
44728;SDS011;30457;53.590;9.922;2023-08-24T16:17:18;1.70;;;1.58;;
44728;SDS011;30457;53.590;9.922;2023-08-24T16:21:44;3.17;;;2.10;;
44728;SDS011;30457;53.590;9.922;2023-08-24T16:26:09;2.40;;;1.73;;
44728;SDS011;30457;53.590;9.922;2023-08-24T16:30:35;2.88;;;1.85;;
44728;SDS011;30457;53.590;9.922;2023-08-24T16:35:01;2.15;;;1.40;;
44728;SDS011;30457;53.590;9.922;2023-08-24T16:39:26;1.75;;;1.60;;
44728;SDS011;30457;53.590;9.922;2023-08-24T16:43:54;2.03;;;1.65;;
44728;SDS011;30457;53.590;9.922;2023-08-24T16:48:20;2.03;;;1.60;;
44728;SDS011;30457;53.590;9.922;2023-08-24T16:52:46;4.10;;;2.05;;
44728;SDS011;30457;53.590;9.922;2023-08-24T16:57:12;9.85;;;1.85;;
44728;SDS011;30457;53.590;9.922;2023-08-24T17:01:37;5.57;;;2.10;;
44728;SDS011;30457;53.590;9.922;2023-08-24T17:06:03;2.30;;;1.73;;
44728;SDS011;30457;53.590;9.922;2023-08-24T17:10:28;2.65;;;2.17;;
44728;SDS011;30457;53.590;9.922;2023-08-24T17:14:54;3.58;;;2.00;;
44728;SDS011;30457;53.590;9.922;2023-08-24T17:19:19;3.05;;;1.60;;
44728;SDS011;30457;53.590;9.922;2023-08-24T17:23:45;4.63;;;2.15;;
44728;SDS011;30457;53.590;9.922;2023-08-24T17:28:11;2.28;;;1.60;;
44728;SDS011;30457;53.590;9.922;2023-08-24T17:32:36;4.18;;;2.10;;
44728;SDS011;30457;53.590;9.922;2023-08-24T17:37:02;4.45;;;2.10;;
44728;SDS011;30457;53.590;9.922;2023-08-24T17:41:27;3.20;;;1.80;;
44728;SDS011;30457;53.590;9.922;2023-08-24T17:45:53;3.03;;;2.03;;
44728;SDS011;30457;53.590;9.922;2023-08-24T17:50:18;3.45;;;1.88;;
44728;SDS011;30457;53.590;9.922;2023-08-24T17:54:44;4.97;;;1.80;;
44728;SDS011;30457;53.590;9.922;2023-08-24T17:59:10;3.00;;;1.88;;
44728;SDS011;30457;53.590;9.922;2023-08-24T18:03:35;1.95;;;1.65;;
44728;SDS011;30457;53.590;9.922;2023-08-24T18:08:01;2.70;;;1.80;;
44728;SDS011;30457;53.590;9.922;2023-08-24T18:12:26;3.75;;;1.92;;
44728;SDS011;30457;53.590;9.922;2023-08-24T18:16:52;4.95;;;1.80;;
44728;SDS011;30457;53.590;9.922;2023-08-24T18:21:17;2.90;;;1.70;;
44728;SDS011;30457;53.590;9.922;2023-08-24T18:25:43;3.13;;;1.65;;
44728;SDS011;30457;53.590;9.922;2023-08-24T18:30:09;2.90;;;2.17;;
44728;SDS011;30457;53.590;9.922;2023-08-24T18:34:35;3.92;;;1.83;;
44728;SDS011;30457;53.590;9.922;2023-08-24T18:39:01;3.90;;;1.73;;
44728;SDS011;30457;53.590;9.922;2023-08-24T18:43:26;3.05;;;1.50;;
44728;SDS011;30457;53.590;9.922;2023-08-24T18:47:53;6.70;;;1.90;;
44728;SDS011;30457;53.590;9.922;2023-08-24T18:52:19;2.40;;;1.88;;
44728;SDS011;30457;53.590;9.922;2023-08-24T18:56:45;1.75;;;1.63;;
44728;SDS011;30457;53.590;9.922;2023-08-24T19:01:12;2.22;;;1.65;;
44728;SDS011;30457;53.590;9.922;2023-08-24T19:05:39;2.05;;;1.90;;
44728;SDS011;30457;53.590;9.922;2023-08-24T19:10:05;3.17;;;1.90;;
44728;SDS011;30457;53.590;9.922;2023-08-24T19:14:31;3.33;;;2.15;;
44728;SDS011;30457;53.590;9.922;2023-08-24T19:18:59;3.38;;;1.95;;
44728;SDS011;30457;53.590;9.922;2023-08-24T19:23:25;3.45;;;1.92;;
44728;SDS011;30457;53.590;9.922;2023-08-24T19:27:50;4.20;;;1.73;;
44728;SDS011;30457;53.590;9.922;2023-08-24T19:32:16;7.03;;;2.00;;
44728;SDS011;30457;53.590;9.922;2023-08-24T19:36:42;3.03;;;2.28;;
44728;SDS011;30457;53.590;9.922;2023-08-24T19:41:07;2.83;;;1.80;;
44728;SDS011;30457;53.590;9.922;2023-08-24T19:45:36;2.90;;;1.90;;
44728;SDS011;30457;53.590;9.922;2023-08-24T19:50:02;3.30;;;2.25;;
44728;SDS011;30457;53.590;9.922;2023-08-24T19:54:28;3.47;;;2.60;;
44728;SDS011;30457;53.590;9.922;2023-08-24T19:58:53;4.60;;;2.35;;
44728;SDS011;30457;53.590;9.922;2023-08-24T20:03:19;6.13;;;2.35;;
44728;SDS011;30457;53.590;9.922;2023-08-24T20:07:45;3.45;;;2.95;;
44728;SDS011;30457;53.590;9.922;2023-08-24T20:12:13;4.30;;;2.65;;
44728;SDS011;30457;53.590;9.922;2023-08-24T20:16:39;5.55;;;2.78;;
44728;SDS011;30457;53.590;9.922;2023-08-24T20:21:04;5.30;;;2.85;;
44728;SDS011;30457;53.590;9.922;2023-08-24T20:25:30;3.65;;;2.60;;
44728;SDS011;30457;53.590;9.922;2023-08-24T20:29:56;2.95;;;2.33;;
44728;SDS011;30457;53.590;9.922;2023-08-24T20:34:21;3.70;;;2.42;;
44728;SDS011;30457;53.590;9.922;2023-08-24T20:38:47;3.35;;;1.83;;
44728;SDS011;30457;53.590;9.922;2023-08-24T20:43:13;8.13;;;1.80;;
44728;SDS011;30457;53.590;9.922;2023-08-24T20:47:38;3.63;;;1.92;;
44728;SDS011;30457;53.590;9.922;2023-08-24T20:52:04;2.58;;;2.00;;
44728;SDS011;30457;53.590;9.922;2023-08-24T20:56:30;6.68;;;2.50;;
44728;SDS011;30457;53.590;9.922;2023-08-24T21:01:02;7.35;;;2.50;;
44728;SDS011;30457;53.590;9.922;2023-08-24T21:05:28;3.80;;;1.98;;
44728;SDS011;30457;53.590;9.922;2023-08-24T21:09:54;4.72;;;2.00;;
44728;SDS011;30457;53.590;9.922;2023-08-24T21:14:20;3.78;;;2.40;;
44728;SDS011;30457;53.590;9.922;2023-08-24T21:18:46;3.67;;;2.70;;
44728;SDS011;30457;53.590;9.922;2023-08-24T21:23:12;3.60;;;2.13;;
44728;SDS011;30457;53.590;9.922;2023-08-24T21:27:37;2.50;;;2.28;;
44728;SDS011;30457;53.590;9.922;2023-08-24T21:32:03;3.63;;;2.17;;
44728;SDS011;30457;53.590;9.922;2023-08-24T21:36:29;2.25;;;1.92;;
44728;SDS011;30457;53.590;9.922;2023-08-24T21:40:54;3.17;;;2.20;;
44728;SDS011;30457;53.590;9.922;2023-08-24T21:45:20;2.42;;;2.22;;
44728;SDS011;30457;53.590;9.922;2023-08-24T21:49:46;7.35;;;1.90;;
44728;SDS011;30457;53.590;9.922;2023-08-24T21:54:11;2.63;;;2.22;;
44728;SDS011;30457;53.590;9.922;2023-08-24T21:58:37;2.95;;;2.05;;
44728;SDS011;30457;53.590;9.922;2023-08-24T22:03:03;3.90;;;2.05;;
44728;SDS011;30457;53.590;9.922;2023-08-24T22:07:29;3.05;;;2.03;;
44728;SDS011;30457;53.590;9.922;2023-08-24T22:11:54;2.40;;;2.03;;
44728;SDS011;30457;53.590;9.922;2023-08-24T22:16:20;15.65;;;2.28;;
44728;SDS011;30457;53.590;9.922;2023-08-24T22:20:50;9.80;;;2.30;;
44728;SDS011;30457;53.590;9.922;2023-08-24T22:25:16;4.78;;;2.00;;
44728;SDS011;30457;53.590;9.922;2023-08-24T22:29:42;3.03;;;2.33;;
44728;SDS011;30457;53.590;9.922;2023-08-24T22:34:08;6.65;;;2.65;;
44728;SDS011;30457;53.590;9.922;2023-08-24T22:38:33;2.45;;;2.25;;
44728;SDS011;30457;53.590;9.922;2023-08-24T22:42:59;4.25;;;2.83;;
44728;SDS011;30457;53.590;9.922;2023-08-24T22:47:25;3.55;;;2.45;;
44728;SDS011;30457;53.590;9.922;2023-08-24T22:51:51;3.40;;;2.30;;
44728;SDS011;30457;53.590;9.922;2023-08-24T22:56:16;4.72;;;2.83;;
44728;SDS011;30457;53.590;9.922;2023-08-24T23:00:42;3.47;;;2.65;;
44728;SDS011;30457;53.590;9.922;2023-08-24T23:05:08;4.63;;;2.30;;
44728;SDS011;30457;53.590;9.922;2023-08-24T23:09:35;3.45;;;2.50;;
44728;SDS011;30457;53.590;9.922;2023-08-24T23:14:01;3.28;;;2.35;;
44728;SDS011;30457;53.590;9.922;2023-08-24T23:18:26;4.68;;;2.40;;
44728;SDS011;30457;53.590;9.922;2023-08-24T23:22:52;4.07;;;2.55;;
44728;SDS011;30457;53.590;9.922;2023-08-24T23:27:17;3.58;;;2.83;;
44728;SDS011;30457;53.590;9.922;2023-08-24T23:31:43;3.10;;;2.80;;
44728;SDS011;30457;53.590;9.922;2023-08-24T23:36:09;3.85;;;2.75;;
44728;SDS011;30457;53.590;9.922;2023-08-24T23:40:35;3.30;;;2.97;;
44728;SDS011;30457;53.590;9.922;2023-08-24T23:45:01;4.30;;;2.92;;
44728;SDS011;30457;53.590;9.922;2023-08-24T23:49:27;5.57;;;2.63;;
44728;SDS011;30457;53.590;9.922;2023-08-24T23:53:53;3.53;;;2.75;;
44728;SDS011;30457;53.590;9.922;2023-08-24T23:58:19;6.55;;;2.80;;
